createdAt,value
2023-02-23T00:00:57.817Z,4.95
2023-02-23T00:02:06.641Z,4.55
2023-02-23T00:03:09.564Z,4.38
2023-02-23T00:04:12.142Z,4.75
2023-02-23T00:05:15.196Z,4.65
2023-02-23T00:06:19.303Z,5.43
2023-02-23T00:07:21.999Z,4.88
2023-02-23T00:08:28.272Z,4.80
2023-02-23T00:09:35.762Z,4.63
2023-02-23T00:10:38.504Z,4.38
2023-02-23T00:11:41.033Z,5.10
2023-02-23T00:12:44.590Z,4.65
2023-02-23T00:13:50.202Z,4.60
2023-02-23T00:14:52.732Z,4.82
2023-02-23T00:15:55.588Z,4.75
2023-02-23T00:16:58.115Z,5.15
2023-02-23T00:18:01.123Z,4.47
2023-02-23T00:19:07.909Z,5.55
2023-02-23T00:20:12.136Z,4.72
2023-02-23T00:21:18.857Z,4.30
2023-02-23T00:22:21.831Z,4.97
2023-02-23T00:23:27.438Z,5.15
2023-02-23T00:24:30.540Z,4.45
2023-02-23T00:25:33.141Z,4.18
2023-02-23T00:26:37.677Z,4.63
2023-02-23T00:27:45.635Z,4.57
2023-02-23T00:28:49.413Z,4.57
2023-02-23T00:29:52.057Z,3.92
2023-02-23T00:30:59.603Z,3.75
2023-02-23T00:32:02.724Z,4.05
2023-02-23T00:33:05.287Z,4.97
2023-02-23T00:34:07.877Z,4.68
2023-02-23T00:35:16.945Z,4.05
2023-02-23T00:36:20.077Z,5.22
2023-02-23T00:37:23.200Z,5.07
2023-02-23T00:38:25.876Z,4.75
2023-02-23T00:39:29.667Z,5.03
2023-02-23T00:40:32.170Z,4.60
2023-02-23T00:41:34.672Z,3.28
2023-02-23T00:42:37.208Z,4.70
2023-02-23T00:43:47.941Z,4.63
2023-02-23T00:45:55.759Z,4.68
2023-02-23T00:46:58.328Z,3.40
2023-02-23T00:48:03.738Z,4.70
2023-02-23T00:49:06.453Z,5.15
2023-02-23T00:50:16.186Z,4.72
2023-02-23T00:51:19.381Z,5.18
2023-02-23T00:52:22.138Z,5.15
2023-02-23T00:53:27.263Z,4.60
2023-02-23T00:54:30.127Z,3.83
2023-02-23T00:55:32.668Z,4.95
2023-02-23T00:56:35.212Z,4.82
2023-02-23T00:57:37.955Z,3.92
2023-02-23T00:58:40.715Z,4.18
2023-02-23T00:59:43.168Z,4.18
2023-02-23T01:00:45.708Z,4.25
2023-02-23T01:01:48.864Z,4.07
2023-02-23T01:02:51.526Z,4.05
2023-02-23T01:03:54.036Z,5.30
2023-02-23T01:04:57.146Z,4.00
2023-02-23T01:06:05.116Z,4.13
2023-02-23T01:07:07.671Z,4.15
2023-02-23T01:08:11.189Z,3.65
2023-02-23T01:09:22.029Z,4.18
2023-02-23T01:10:25.097Z,3.53
2023-02-23T01:11:28.707Z,4.07
2023-02-23T01:12:31.581Z,3.50
2023-02-23T01:13:34.068Z,3.80
2023-02-23T01:14:38.187Z,4.35
2023-02-23T01:15:44.455Z,3.65
2023-02-23T01:16:47.206Z,5.63
2023-02-23T01:17:50.365Z,4.13
2023-02-23T01:18:53.852Z,4.53
2023-02-23T01:19:56.452Z,4.78
2023-02-23T01:20:58.937Z,4.25
2023-02-23T01:22:02.354Z,4.82
2023-02-23T01:23:05.290Z,4.93
2023-02-23T01:24:08.281Z,4.60
2023-02-23T01:25:12.383Z,4.57
2023-02-23T01:26:23.223Z,4.63
2023-02-23T01:28:28.302Z,3.55
2023-02-23T01:29:30.858Z,4.32
2023-02-23T01:30:33.613Z,4.07
2023-02-23T01:31:38.101Z,4.22
2023-02-23T01:32:41.226Z,4.50
2023-02-23T01:33:43.722Z,4.75
2023-02-23T01:34:46.261Z,3.28
2023-02-23T01:36:01.369Z,4.40
2023-02-23T01:37:03.912Z,3.97
2023-02-23T01:38:06.469Z,3.92
2023-02-23T01:39:12.950Z,3.70
2023-02-23T01:40:28.822Z,4.18
2023-02-23T01:41:33.214Z,4.07
2023-02-23T01:42:39.188Z,3.30
2023-02-23T01:44:07.195Z,3.70
2023-02-23T01:45:25.924Z,4.57
2023-02-23T01:46:39.301Z,4.28
2023-02-23T01:47:42.140Z,4.40
2023-02-23T01:48:44.622Z,4.20
2023-02-23T01:49:47.499Z,4.82
2023-02-23T01:50:56.648Z,3.88
2023-02-23T01:52:00.206Z,4.07
2023-02-23T01:53:04.368Z,3.80
2023-02-23T01:54:10.246Z,3.88
2023-02-23T01:55:13.976Z,4.68
2023-02-23T01:56:21.508Z,3.53
2023-02-23T01:57:25.152Z,4.60
2023-02-23T01:58:29.451Z,4.28
2023-02-23T01:59:47.638Z,4.90
2023-02-23T02:01:01.761Z,4.03
2023-02-23T02:02:07.939Z,4.32
2023-02-23T02:03:16.165Z,4.22
2023-02-23T02:04:20.163Z,4.30
2023-02-23T02:05:23.205Z,4.35
2023-02-23T02:06:30.100Z,3.80
2023-02-23T02:07:35.321Z,3.63
2023-02-23T02:08:45.354Z,3.95
2023-02-23T02:10:07.168Z,3.58
2023-02-23T02:11:25.893Z,3.47
2023-02-23T02:12:28.513Z,3.20
2023-02-23T02:13:32.560Z,4.38
2023-02-23T02:14:35.736Z,4.15
2023-02-23T02:15:44.179Z,4.35
2023-02-23T02:17:13.783Z,3.50
2023-02-23T02:18:42.312Z,3.67
2023-02-23T02:20:15.516Z,3.50
2023-02-23T02:21:23.670Z,3.55
2023-02-23T02:24:13.441Z,3.08
2023-02-23T02:25:28.354Z,3.53
2023-02-23T02:26:30.833Z,2.83
2023-02-23T02:28:08.745Z,3.88
2023-02-23T02:29:28.779Z,3.92
2023-02-23T02:31:08.281Z,3.92
2023-02-23T02:32:13.481Z,3.95
2023-02-23T02:33:37.985Z,3.75
2023-02-23T02:34:53.168Z,3.35
2023-02-23T02:36:24.767Z,3.35
2023-02-23T02:37:42.257Z,3.33
2023-02-23T02:38:53.818Z,3.78
2023-02-23T02:40:21.439Z,3.17
2023-02-23T02:41:23.864Z,3.95
2023-02-23T02:42:36.764Z,3.80
2023-02-23T02:43:56.977Z,3.70
2023-02-23T02:46:11.395Z,3.72
2023-02-23T02:47:19.218Z,4.22
2023-02-23T02:48:38.736Z,3.95
2023-02-23T02:49:47.230Z,4.03
2023-02-23T02:51:09.553Z,3.83
2023-02-23T02:52:31.442Z,4.22
2023-02-23T02:53:52.241Z,4.68
2023-02-23T02:55:05.676Z,3.85
2023-02-23T02:56:08.702Z,4.18
2023-02-23T02:57:13.428Z,4.72
2023-02-23T02:58:17.877Z,5.00
2023-02-23T02:59:39.242Z,4.95
2023-02-23T03:01:03.941Z,3.40
2023-02-23T03:02:25.713Z,4.72
2023-02-23T03:04:02.203Z,4.40
2023-02-23T03:05:34.212Z,4.70
2023-02-23T03:07:02.782Z,4.05
2023-02-23T03:08:51.896Z,4.10
2023-02-23T03:10:22.241Z,3.42
2023-02-23T03:11:50.209Z,4.22
2023-02-23T03:13:31.592Z,4.65
2023-02-23T03:15:05.200Z,5.30
2023-02-23T03:16:35.198Z,4.60
2023-02-23T03:18:02.254Z,4.15
2023-02-23T03:19:48.792Z,4.90
2023-02-23T03:21:12.829Z,4.05
2023-02-23T03:22:53.542Z,4.45
2023-02-23T03:24:41.906Z,4.68
2023-02-23T03:27:35.159Z,4.10
2023-02-23T03:29:29.213Z,5.10
2023-02-23T03:30:59.324Z,4.47
2023-02-23T03:32:33.555Z,4.82
2023-02-23T03:34:00.557Z,4.40
2023-02-23T03:35:54.038Z,4.65
2023-02-23T03:37:36.151Z,4.20
2023-02-23T03:39:04.278Z,3.65
2023-02-23T03:40:40.529Z,5.30
2023-02-23T03:42:02.969Z,4.20
2023-02-23T03:43:28.102Z,5.13
2023-02-23T03:44:55.192Z,5.55
2023-02-23T03:46:17.032Z,5.93
2023-02-23T03:47:41.307Z,4.75
2023-02-23T03:49:05.726Z,4.40
2023-02-23T03:50:31.187Z,5.65
2023-02-23T03:51:54.354Z,5.50
2023-02-23T03:53:17.364Z,5.38
2023-02-23T03:54:55.483Z,6.13
2023-02-23T03:56:17.009Z,5.20
2023-02-23T03:57:40.336Z,5.47
2023-02-23T03:59:10.448Z,5.68
2023-02-23T04:00:36.865Z,3.92
2023-02-23T04:01:58.241Z,5.47
2023-02-23T04:03:20.112Z,5.07
2023-02-23T04:04:42.118Z,4.72
2023-02-23T04:06:04.362Z,4.40
2023-02-23T04:07:25.938Z,5.20
2023-02-23T04:08:53.057Z,4.32
2023-02-23T04:10:14.558Z,5.10
2023-02-23T04:11:40.610Z,5.45
2023-02-23T04:13:10.526Z,4.72
2023-02-23T04:14:39.346Z,5.47
2023-02-23T04:15:44.663Z,4.60
2023-02-23T04:16:47.518Z,4.57
2023-02-23T04:17:50.356Z,4.68
2023-02-23T04:18:52.891Z,4.68
2023-02-23T04:19:56.012Z,5.03
2023-02-23T04:21:00.005Z,4.75
2023-02-23T04:22:02.821Z,4.90
2023-02-23T04:23:05.280Z,5.88
2023-02-23T04:24:07.914Z,4.90
2023-02-23T04:25:10.661Z,4.97
2023-02-23T04:26:13.076Z,4.85
2023-02-23T04:27:15.991Z,4.88
2023-02-23T04:28:19.396Z,4.85
2023-02-23T04:29:21.849Z,4.40
2023-02-23T04:30:28.628Z,5.00
2023-02-23T04:31:31.160Z,5.05
2023-02-23T04:32:33.838Z,4.95
2023-02-23T04:33:36.398Z,5.20
2023-02-23T04:34:38.839Z,3.97
2023-02-23T04:35:41.861Z,5.05
2023-02-23T04:36:44.411Z,5.18
2023-02-23T04:37:47.257Z,4.88
2023-02-23T04:38:49.768Z,4.88
2023-02-23T04:39:52.310Z,6.55
2023-02-23T04:40:54.868Z,5.63
2023-02-23T04:41:57.427Z,4.50
2023-02-23T04:42:59.987Z,4.85
2023-02-23T04:44:02.515Z,4.75
2023-02-23T04:45:05.657Z,5.10
2023-02-23T04:46:08.487Z,5.45
2023-02-23T04:47:11.621Z,5.45
2023-02-23T04:48:14.216Z,5.45
2023-02-23T04:49:16.846Z,5.22
2023-02-23T04:50:20.097Z,6.47
2023-02-23T04:51:22.516Z,5.15
2023-02-23T04:52:25.068Z,5.13
2023-02-23T04:53:27.839Z,5.70
2023-02-23T04:54:30.947Z,5.25
2023-02-23T04:55:33.575Z,5.35
2023-02-23T04:56:36.460Z,4.68
2023-02-23T04:57:38.927Z,5.47
2023-02-23T04:58:42.040Z,5.78
2023-02-23T04:59:44.641Z,5.68
2023-02-23T05:00:47.214Z,5.75
2023-02-23T05:01:49.912Z,5.30
2023-02-23T05:02:52.494Z,6.50
2023-02-23T05:03:55.867Z,5.68
2023-02-23T05:04:58.464Z,6.20
2023-02-23T05:06:01.408Z,5.40
2023-02-23T05:07:04.805Z,6.43
2023-02-23T05:08:07.350Z,5.90
2023-02-23T05:09:10.601Z,6.43
2023-02-23T05:10:13.726Z,6.18
2023-02-23T05:11:16.231Z,6.13
2023-02-23T05:12:18.885Z,6.55
2023-02-23T05:13:22.344Z,6.13
2023-02-23T05:14:24.890Z,5.82
2023-02-23T05:15:28.103Z,5.43
2023-02-23T05:16:30.938Z,5.40
2023-02-23T05:17:33.499Z,5.97
2023-02-23T05:18:35.993Z,6.00
2023-02-23T05:19:38.582Z,6.50
2023-02-23T05:20:44.876Z,5.30
2023-02-23T05:21:47.513Z,6.10
2023-02-23T05:22:50.074Z,5.60
2023-02-23T05:23:52.581Z,5.80
2023-02-23T05:24:57.363Z,5.15
2023-02-23T05:26:05.857Z,5.20
2023-02-23T05:27:09.629Z,6.05
2023-02-23T05:28:12.288Z,5.55
2023-02-23T05:29:14.771Z,6.20
2023-02-23T05:30:17.478Z,6.72
2023-02-23T05:31:20.646Z,6.35
2023-02-23T05:32:23.383Z,5.30
2023-02-23T05:33:25.946Z,6.03
2023-02-23T05:34:28.582Z,5.78
2023-02-23T05:35:31.572Z,5.75
2023-02-23T05:36:34.284Z,6.68
2023-02-23T05:37:37.020Z,5.80
2023-02-23T05:38:40.905Z,5.10
2023-02-23T05:39:43.431Z,6.78
2023-02-23T05:40:45.923Z,5.60
2023-02-23T05:41:48.433Z,6.57
2023-02-23T05:42:51.252Z,5.35
2023-02-23T05:43:55.154Z,5.90
2023-02-23T05:44:57.734Z,6.20
2023-02-23T05:46:01.403Z,5.75
2023-02-23T05:47:03.898Z,5.80
2023-02-23T05:48:06.817Z,6.28
2023-02-23T05:49:12.651Z,6.07
2023-02-23T05:50:15.428Z,5.68
2023-02-23T05:51:18.889Z,5.78
2023-02-23T05:52:21.508Z,5.43
2023-02-23T05:53:24.115Z,4.93
2023-02-23T05:54:27.444Z,6.40
2023-02-23T05:55:30.162Z,6.00
2023-02-23T05:56:32.712Z,6.20
2023-02-23T05:57:35.443Z,5.07
2023-02-23T05:58:38.054Z,5.13
2023-02-23T05:59:40.996Z,5.40
2023-02-23T06:00:43.502Z,5.32
2023-02-23T06:01:46.457Z,5.97
2023-02-23T06:02:52.432Z,6.18
2023-02-23T06:03:55.726Z,5.75
2023-02-23T06:04:58.528Z,4.88
2023-02-23T06:06:01.021Z,6.05
2023-02-23T06:07:03.576Z,5.35
2023-02-23T06:08:06.107Z,5.65
2023-02-23T06:09:08.593Z,4.97
2023-02-23T06:10:11.831Z,5.57
2023-02-23T06:11:14.310Z,5.35
2023-02-23T06:12:17.127Z,6.22
2023-02-23T06:13:21.366Z,6.85
2023-02-23T06:14:23.926Z,6.03
2023-02-23T06:15:27.453Z,5.88
2023-02-23T06:16:32.042Z,6.25
2023-02-23T06:17:35.151Z,5.57
2023-02-23T06:18:37.674Z,6.00
2023-02-23T06:19:40.258Z,6.07
2023-02-23T06:20:43.005Z,6.15
2023-02-23T06:21:46.821Z,5.72
2023-02-23T06:22:49.636Z,5.65
2023-02-23T06:23:53.486Z,5.97
2023-02-23T06:24:56.168Z,5.78
2023-02-23T06:26:00.153Z,5.97
2023-02-23T06:27:02.848Z,5.90
2023-02-23T06:28:05.704Z,6.05
2023-02-23T06:29:08.386Z,6.72
2023-02-23T06:30:11.536Z,6.20
2023-02-23T06:31:14.155Z,6.13
2023-02-23T06:32:16.657Z,6.32
2023-02-23T06:33:23.649Z,6.10
2023-02-23T06:34:26.343Z,5.93
2023-02-23T06:35:29.071Z,7.10
2023-02-23T06:36:31.572Z,6.50
2023-02-23T06:37:35.166Z,7.10
2023-02-23T06:38:38.266Z,6.22
2023-02-23T06:39:40.878Z,6.53
2023-02-23T06:40:43.927Z,6.90
2023-02-23T06:41:46.373Z,6.03
2023-02-23T06:42:48.910Z,5.80
2023-02-23T06:43:52.009Z,6.20
2023-02-23T06:44:54.489Z,6.85
2023-02-23T06:45:56.940Z,6.70
2023-02-23T06:46:59.621Z,6.68
2023-02-23T06:48:02.268Z,6.68
2023-02-23T06:49:04.980Z,6.65
2023-02-23T06:50:09.116Z,6.93
2023-02-23T06:51:11.693Z,7.30
2023-02-23T06:52:15.150Z,8.10
2023-02-23T06:53:18.420Z,6.25
2023-02-23T06:54:21.375Z,7.15
2023-02-23T06:55:24.574Z,7.00
2023-02-23T06:56:27.364Z,6.88
2023-02-23T06:57:30.017Z,7.70
2023-02-23T06:58:32.723Z,6.70
2023-02-23T06:59:36.635Z,7.13
2023-02-23T07:00:43.099Z,6.25
2023-02-23T07:01:46.240Z,6.85
2023-02-23T07:02:48.998Z,5.03
2023-02-23T07:03:51.726Z,6.32
2023-02-23T07:04:54.505Z,5.55
2023-02-23T07:05:57.271Z,5.90
2023-02-23T07:06:59.763Z,5.40
2023-02-23T07:08:02.279Z,6.18
2023-02-23T07:09:05.779Z,6.18
2023-02-23T07:10:09.072Z,6.30
2023-02-23T07:11:14.372Z,6.38
2023-02-23T07:12:17.075Z,5.60
2023-02-23T07:13:20.591Z,5.72
2023-02-23T07:14:26.877Z,6.95
2023-02-23T07:15:29.824Z,6.28
2023-02-23T07:16:32.372Z,6.30
2023-02-23T07:17:37.288Z,6.35
2023-02-23T07:18:39.827Z,5.93
2023-02-23T07:19:43.131Z,6.43
2023-02-23T07:20:45.610Z,6.32
2023-02-23T07:21:48.031Z,6.05
2023-02-23T07:22:50.964Z,5.63
2023-02-23T07:23:53.413Z,6.28
2023-02-23T07:24:59.509Z,5.95
2023-02-23T07:26:02.082Z,6.43
2023-02-23T07:27:04.736Z,6.00
2023-02-23T07:28:07.300Z,6.03
2023-02-23T07:29:12.546Z,6.05
2023-02-23T07:30:15.817Z,5.45
2023-02-23T07:31:19.347Z,6.97
2023-02-23T07:32:22.430Z,5.40
2023-02-23T07:33:25.810Z,5.18
2023-02-23T07:34:28.340Z,5.57
2023-02-23T07:35:30.826Z,5.72
2023-02-23T07:36:33.332Z,6.57
2023-02-23T07:37:35.908Z,5.30
2023-02-23T07:38:38.468Z,5.93
2023-02-23T07:39:41.033Z,5.90
2023-02-23T07:40:43.658Z,5.63
2023-02-23T07:41:46.404Z,5.13
2023-02-23T07:42:55.506Z,4.88
2023-02-23T07:43:59.355Z,6.03
2023-02-23T07:45:01.947Z,5.10
2023-02-23T07:46:04.628Z,5.03
2023-02-23T07:47:07.542Z,5.22
2023-02-23T07:48:10.233Z,4.63
2023-02-23T07:49:16.096Z,5.25
2023-02-23T07:50:18.732Z,5.07
2023-02-23T07:51:21.755Z,5.47
2023-02-23T07:52:24.602Z,5.30
2023-02-23T07:53:27.989Z,5.28
2023-02-23T07:54:30.465Z,4.65
2023-02-23T07:55:33.150Z,4.63
2023-02-23T07:56:35.851Z,4.57
2023-02-23T07:57:39.615Z,4.95
2023-02-23T07:58:43.899Z,5.20
2023-02-23T07:59:47.894Z,4.43
2023-02-23T08:00:50.506Z,4.70
2023-02-23T08:01:53.220Z,4.68
2023-02-23T08:02:55.688Z,4.93
2023-02-23T08:03:58.135Z,5.68
2023-02-23T08:05:00.812Z,5.25
2023-02-23T08:06:03.322Z,5.10
2023-02-23T08:07:05.895Z,4.97
2023-02-23T08:08:08.346Z,5.78
2023-02-23T08:09:12.106Z,5.75
2023-02-23T08:10:14.685Z,4.82
2023-02-23T08:11:20.599Z,5.00
2023-02-23T08:12:23.266Z,4.95
2023-02-23T08:13:25.685Z,5.30
2023-02-23T08:14:28.632Z,5.68
2023-02-23T08:15:31.765Z,5.63
2023-02-23T08:16:34.812Z,5.10
2023-02-23T08:17:38.417Z,4.70
2023-02-23T08:18:42.970Z,4.88
2023-02-23T08:19:45.676Z,4.72
2023-02-23T08:20:48.145Z,4.93
2023-02-23T08:21:51.135Z,6.18
2023-02-23T08:22:57.292Z,5.68
2023-02-23T08:23:59.885Z,5.00
2023-02-23T08:25:03.411Z,6.00
2023-02-23T08:26:05.887Z,4.80
2023-02-23T08:27:08.439Z,5.07
2023-02-23T08:28:11.050Z,5.55
2023-02-23T08:29:13.630Z,5.03
2023-02-23T08:30:16.793Z,6.55
2023-02-23T08:31:21.572Z,5.22
2023-02-23T08:32:24.328Z,4.60
2023-02-23T08:33:27.042Z,5.15
2023-02-23T08:34:29.882Z,5.55
2023-02-23T08:35:32.293Z,5.35
2023-02-23T08:36:34.775Z,5.13
2023-02-23T08:37:37.571Z,5.07
2023-02-23T08:38:40.078Z,5.82
2023-02-23T08:39:44.139Z,4.88
2023-02-23T08:40:46.826Z,5.38
2023-02-23T08:41:49.347Z,5.10
2023-02-23T08:42:52.186Z,5.32
2023-02-23T08:43:54.917Z,4.57
2023-02-23T08:44:57.536Z,5.57
2023-02-23T08:46:00.129Z,5.40
2023-02-23T08:47:04.757Z,6.05
2023-02-23T08:48:09.168Z,5.25
2023-02-23T08:49:11.598Z,4.80
2023-02-23T08:50:14.381Z,5.25
2023-02-23T08:51:17.366Z,5.68
2023-02-23T08:52:20.380Z,6.28
2023-02-23T08:53:25.858Z,6.20
2023-02-23T08:54:28.871Z,4.75
2023-02-23T08:55:31.476Z,5.63
2023-02-23T08:56:34.215Z,5.53
2023-02-23T08:57:36.732Z,5.32
2023-02-23T08:58:39.729Z,5.50
2023-02-23T08:59:42.326Z,5.65
2023-02-23T09:00:45.265Z,5.93
2023-02-23T09:01:47.773Z,5.43
2023-02-23T09:02:50.705Z,5.63
2023-02-23T09:03:53.346Z,4.97
2023-02-23T09:04:55.868Z,6.20
2023-02-23T09:06:05.464Z,6.35
2023-02-23T09:07:08.955Z,5.65
2023-02-23T09:08:12.419Z,5.05
2023-02-23T09:09:15.040Z,6.13
2023-02-23T09:10:20.192Z,5.43
2023-02-23T09:11:24.044Z,5.40
2023-02-23T09:12:26.622Z,4.75
2023-02-23T09:13:29.043Z,5.30
2023-02-23T09:14:32.452Z,6.00
2023-02-23T09:15:35.102Z,5.57
2023-02-23T09:16:37.690Z,5.30
2023-02-23T09:17:42.930Z,5.93
2023-02-23T09:18:45.634Z,5.43
2023-02-23T09:19:48.467Z,5.25
2023-02-23T09:20:51.378Z,5.80
2023-02-23T09:21:54.649Z,6.10
2023-02-23T09:22:57.297Z,5.53
2023-02-23T09:23:59.952Z,5.60
2023-02-23T09:25:02.507Z,5.45
2023-02-23T09:26:08.620Z,5.97
2023-02-23T09:27:12.963Z,5.75
2023-02-23T09:28:18.518Z,5.85
2023-02-23T09:29:20.981Z,5.50
2023-02-23T09:30:24.240Z,5.78
2023-02-23T09:31:27.066Z,5.40
2023-02-23T09:32:30.072Z,5.68
2023-02-23T09:33:32.915Z,5.78
2023-02-23T09:34:37.396Z,4.55
2023-02-23T09:35:41.420Z,5.88
2023-02-23T09:36:44.311Z,5.32
2023-02-23T09:37:52.335Z,5.18
2023-02-23T09:38:57.246Z,6.13
2023-02-23T09:39:59.894Z,5.55
2023-02-23T09:41:02.404Z,5.50
2023-02-23T09:42:28.800Z,4.97
2023-02-23T09:43:33.499Z,5.85
2023-02-23T09:44:50.730Z,5.57
2023-02-23T09:45:58.046Z,5.40
2023-02-23T09:47:18.639Z,5.03
2023-02-23T09:48:23.353Z,5.63
2023-02-23T09:49:29.831Z,4.60
2023-02-23T09:50:35.002Z,5.50
2023-02-23T09:51:40.904Z,5.43
2023-02-23T09:52:46.548Z,5.00
2023-02-23T09:53:54.802Z,5.82
2023-02-23T09:54:58.292Z,6.32
2023-02-23T09:56:01.557Z,5.00
2023-02-23T09:57:11.082Z,5.47
2023-02-23T09:58:23.601Z,5.30
2023-02-23T09:59:26.681Z,5.57
2023-02-23T10:00:29.519Z,5.32
2023-02-23T10:01:50.656Z,4.95
2023-02-23T10:03:11.772Z,5.20
2023-02-23T10:04:44.429Z,5.75
2023-02-23T10:05:55.805Z,5.50
2023-02-23T10:07:18.934Z,6.03
2023-02-23T10:08:44.002Z,5.78
2023-02-23T10:10:08.556Z,5.20
2023-02-23T10:11:20.393Z,4.68
2023-02-23T10:12:35.472Z,6.55
2023-02-23T10:14:11.413Z,5.72
2023-02-23T10:15:27.882Z,5.55
2023-02-23T10:16:37.885Z,5.75
2023-02-23T10:17:44.679Z,5.03
2023-02-23T10:18:56.550Z,5.30
2023-02-23T10:20:17.113Z,5.90
2023-02-23T10:21:35.285Z,5.78
2023-02-23T10:22:38.968Z,5.43
2023-02-23T10:24:10.064Z,5.93
2023-02-23T10:25:25.044Z,5.47
2023-02-23T10:26:32.250Z,6.30
2023-02-23T10:27:43.454Z,5.93
2023-02-23T10:28:46.960Z,6.25
2023-02-23T10:29:53.322Z,5.70
2023-02-23T10:30:56.314Z,6.35
2023-02-23T10:32:25.277Z,5.70
2023-02-23T10:33:37.575Z,5.57
2023-02-23T10:34:41.354Z,5.63
2023-02-23T10:35:45.051Z,5.70
2023-02-23T10:36:58.538Z,6.07
2023-02-23T10:38:02.048Z,5.55
2023-02-23T10:39:08.932Z,5.82
2023-02-23T10:40:25.518Z,5.57
2023-02-23T10:41:28.083Z,5.53
2023-02-23T10:42:31.988Z,6.20
2023-02-23T10:43:34.515Z,5.88
2023-02-23T10:44:37.543Z,6.35
2023-02-23T10:45:48.559Z,6.32
2023-02-23T10:46:56.791Z,6.25
2023-02-23T10:48:04.660Z,6.25
2023-02-23T10:49:08.119Z,6.53
2023-02-23T10:50:11.487Z,5.82
2023-02-23T10:51:19.370Z,5.65
2023-02-23T10:52:41.327Z,5.97
2023-02-23T10:53:44.261Z,6.47
2023-02-23T10:54:49.651Z,5.45
2023-02-23T10:56:06.482Z,5.70
2023-02-23T10:57:10.228Z,5.88
2023-02-23T10:58:20.235Z,5.70
2023-02-23T10:59:22.934Z,6.05
2023-02-23T11:00:30.679Z,6.57
2023-02-23T11:02:00.424Z,5.70
2023-02-23T11:03:19.182Z,6.43
2023-02-23T11:04:34.985Z,5.75
2023-02-23T11:05:45.572Z,6.15
2023-02-23T11:06:49.601Z,5.70
2023-02-23T11:07:52.397Z,6.60
2023-02-23T11:08:55.766Z,5.47
2023-02-23T11:09:59.414Z,6.20
2023-02-23T11:11:07.157Z,5.97
2023-02-23T11:12:23.107Z,5.65
2023-02-23T11:13:28.540Z,5.57
2023-02-23T11:14:32.021Z,6.03
2023-02-23T11:15:49.935Z,6.28
2023-02-23T11:16:55.535Z,6.10
2023-02-23T11:18:05.314Z,6.10
2023-02-23T11:19:24.212Z,5.53
2023-02-23T11:20:40.577Z,6.05
2023-02-23T11:21:51.772Z,5.47
2023-02-23T11:22:58.984Z,5.97
2023-02-23T11:24:19.344Z,6.20
2023-02-23T11:25:29.049Z,6.03
2023-02-23T11:26:51.524Z,6.30
2023-02-23T11:27:57.130Z,6.20
2023-02-23T11:29:12.258Z,5.78
2023-02-23T11:30:15.100Z,6.03
2023-02-23T11:31:23.450Z,6.38
2023-02-23T11:32:32.796Z,5.55
2023-02-23T11:33:36.234Z,6.22
2023-02-23T11:34:43.264Z,5.85
2023-02-23T11:35:46.711Z,6.72
2023-02-23T11:36:59.564Z,6.43
2023-02-23T11:38:21.570Z,5.43
2023-02-23T11:39:24.080Z,5.68
2023-02-23T11:40:27.926Z,5.20
2023-02-23T11:41:32.998Z,6.10
2023-02-23T11:42:35.511Z,6.97
2023-02-23T11:43:38.024Z,6.30
2023-02-23T11:44:40.585Z,5.22
2023-02-23T11:45:51.131Z,5.22
2023-02-23T11:46:53.875Z,6.15
2023-02-23T11:47:58.717Z,5.55
2023-02-23T11:49:07.485Z,6.00
2023-02-23T11:50:26.870Z,6.60
2023-02-23T11:51:40.429Z,6.28
2023-02-23T11:52:44.730Z,5.95
2023-02-23T11:53:47.438Z,6.40
2023-02-23T11:54:54.961Z,6.28
2023-02-23T11:56:08.049Z,6.90
2023-02-23T11:57:10.747Z,5.57
2023-02-23T11:58:37.434Z,5.95
2023-02-23T11:59:42.030Z,5.95
2023-02-23T12:00:44.513Z,5.88
2023-02-23T12:01:51.386Z,5.85
2023-02-23T12:02:59.140Z,6.22
2023-02-23T12:04:02.131Z,6.90
2023-02-23T12:05:10.669Z,6.00
2023-02-23T12:06:13.320Z,5.90
2023-02-23T12:07:29.605Z,5.90
2023-02-23T12:08:45.840Z,5.45
2023-02-23T12:09:49.766Z,5.78
2023-02-23T12:10:55.403Z,5.55
2023-02-23T12:12:04.087Z,5.82
2023-02-23T12:13:25.066Z,6.30
2023-02-23T12:15:53.542Z,6.25
2023-02-23T12:17:01.240Z,5.40
2023-02-23T12:18:48.277Z,5.45
2023-02-23T12:20:11.222Z,6.05
2023-02-23T12:21:40.020Z,5.40
2023-02-23T12:22:49.808Z,5.88
2023-02-23T12:23:58.927Z,5.93
2023-02-23T12:25:25.269Z,5.68
2023-02-23T12:26:28.693Z,5.97
2023-02-23T12:27:45.262Z,5.32
2023-02-23T12:28:58.851Z,6.28
2023-02-23T12:30:09.120Z,5.68
2023-02-23T12:31:23.564Z,6.38
2023-02-23T12:32:38.158Z,7.00
2023-02-23T12:33:46.872Z,6.38
2023-02-23T12:34:59.334Z,6.43
2023-02-23T12:36:38.931Z,6.22
2023-02-23T12:37:48.168Z,6.10
2023-02-23T12:38:59.827Z,5.53
2023-02-23T12:40:28.230Z,5.88
2023-02-23T12:41:41.782Z,6.47
2023-02-23T12:43:04.190Z,6.65
2023-02-23T12:44:27.739Z,6.10
2023-02-23T12:45:46.523Z,5.53
2023-02-23T12:46:52.751Z,5.45
2023-02-23T12:48:13.751Z,6.28
2023-02-23T12:50:43.403Z,5.50
2023-02-23T12:51:51.571Z,6.32
2023-02-23T12:53:08.223Z,5.60
2023-02-23T12:54:15.712Z,5.57
2023-02-23T12:55:31.306Z,5.13
2023-02-23T12:56:44.251Z,5.93
2023-02-23T12:57:46.657Z,5.90
2023-02-23T12:59:17.070Z,5.28
2023-02-23T13:00:39.390Z,6.00
2023-02-23T13:02:00.900Z,5.78
2023-02-23T13:03:24.378Z,4.90
2023-02-23T13:04:34.551Z,4.95
2023-02-23T13:05:56.682Z,5.40
2023-02-23T13:07:05.497Z,4.65
2023-02-23T13:08:25.754Z,5.72
2023-02-23T13:09:47.050Z,5.75
2023-02-23T13:10:55.759Z,5.57
2023-02-23T13:12:10.513Z,5.75
2023-02-23T13:13:25.030Z,5.47
2023-02-23T13:14:36.041Z,5.55
2023-02-23T13:16:12.364Z,5.20
2023-02-23T13:17:42.719Z,5.05
2023-02-23T13:18:46.529Z,4.53
2023-02-23T13:19:53.735Z,5.13
2023-02-23T13:21:06.653Z,4.55
2023-02-23T13:22:27.882Z,5.32
2023-02-23T13:23:34.783Z,5.32
2023-02-23T13:24:40.257Z,4.38
2023-02-23T13:25:50.789Z,4.57
2023-02-23T13:26:59.322Z,4.43
2023-02-23T13:28:02.388Z,5.07
2023-02-23T13:29:11.064Z,4.53
2023-02-23T13:30:16.473Z,4.57
2023-02-23T13:31:35.203Z,4.43
2023-02-23T13:32:39.373Z,5.28
2023-02-23T13:33:44.219Z,4.82
2023-02-23T13:35:07.182Z,3.92
2023-02-23T13:36:12.940Z,4.88
2023-02-23T13:37:17.670Z,5.00
2023-02-23T13:38:32.283Z,4.22
2023-02-23T13:39:55.581Z,4.47
2023-02-23T13:41:11.828Z,4.70
2023-02-23T13:42:26.407Z,4.03
2023-02-23T13:43:35.061Z,5.00
2023-02-23T13:44:39.783Z,4.18
2023-02-23T13:45:50.139Z,4.32
2023-02-23T13:47:29.891Z,4.80
2023-02-23T13:48:55.999Z,4.82
2023-02-23T13:50:22.360Z,5.22
2023-02-23T13:51:51.886Z,4.85
2023-02-23T13:52:58.864Z,4.57
2023-02-23T13:54:23.088Z,4.93
2023-02-23T13:55:40.104Z,4.07
2023-02-23T13:56:52.500Z,5.10
2023-02-23T13:58:03.763Z,4.22
2023-02-23T13:59:10.167Z,4.85
2023-02-23T14:00:21.960Z,4.55
2023-02-23T14:01:33.634Z,5.00
2023-02-23T14:02:43.122Z,5.35
2023-02-23T14:03:57.066Z,5.65
2023-02-23T14:05:31.664Z,4.95
2023-02-23T14:06:34.755Z,5.07
2023-02-23T14:07:43.076Z,5.75
2023-02-23T14:08:52.337Z,5.05
2023-02-23T14:09:57.258Z,4.28
2023-02-23T14:11:00.128Z,4.65
2023-02-23T14:12:19.138Z,5.38
2023-02-23T14:13:21.600Z,4.65
2023-02-23T14:14:33.226Z,4.78
2023-02-23T14:15:35.844Z,5.35
2023-02-23T14:16:38.437Z,4.90
2023-02-23T14:17:41.538Z,4.20
2023-02-23T14:19:12.146Z,4.88
2023-02-23T14:20:29.545Z,5.57
2023-02-23T14:21:33.472Z,5.13
2023-02-23T14:22:36.144Z,4.90
2023-02-23T14:24:10.803Z,4.80
2023-02-23T14:25:35.303Z,4.85
2023-02-23T14:27:03.404Z,4.57
2023-02-23T14:28:31.171Z,4.30
2023-02-23T14:30:11.452Z,4.82
2023-02-23T14:31:14.088Z,4.50
2023-02-23T14:32:17.170Z,4.93
2023-02-23T14:33:48.553Z,3.95
2023-02-23T14:34:59.839Z,4.78
2023-02-23T14:36:03.314Z,4.50
2023-02-23T14:37:18.704Z,4.45
2023-02-23T14:38:47.124Z,4.60
2023-02-23T14:39:51.820Z,4.03
2023-02-23T14:40:54.778Z,4.88
2023-02-23T14:41:59.629Z,4.97
2023-02-23T14:43:04.188Z,4.40
2023-02-23T14:44:27.220Z,4.30
2023-02-23T14:45:33.246Z,4.40
2023-02-23T14:46:36.705Z,4.57
2023-02-23T14:47:46.646Z,4.75
2023-02-23T14:49:15.767Z,4.18
2023-02-23T14:50:31.257Z,4.03
2023-02-23T14:51:45.032Z,4.93
2023-02-23T14:52:47.672Z,4.35
2023-02-23T14:53:53.603Z,4.55
2023-02-23T14:55:11.510Z,5.32
2023-02-23T14:56:26.222Z,5.55
2023-02-23T14:57:37.388Z,4.90
2023-02-23T14:58:39.921Z,5.07
2023-02-23T14:59:43.122Z,5.82
2023-02-23T15:00:45.661Z,4.90
2023-02-23T15:01:49.305Z,6.50
2023-02-23T15:02:59.226Z,5.22
2023-02-23T15:04:20.533Z,4.95
2023-02-23T15:05:46.849Z,5.10
2023-02-23T15:06:50.016Z,5.43
2023-02-23T15:07:54.563Z,5.65
2023-02-23T15:08:57.353Z,4.93
2023-02-23T15:10:01.202Z,5.55
2023-02-23T15:11:11.267Z,7.50
2023-02-23T15:12:28.632Z,5.72
2023-02-23T15:13:40.232Z,5.45
2023-02-23T15:14:42.920Z,6.25
2023-02-23T15:15:46.290Z,5.85
2023-02-23T15:16:49.962Z,6.25
2023-02-23T15:17:58.593Z,6.10
2023-02-23T15:19:02.680Z,5.88
2023-02-23T15:20:16.825Z,5.85
2023-02-23T15:21:23.317Z,5.25
2023-02-23T15:22:32.569Z,5.30
2023-02-23T15:23:40.079Z,5.15
2023-02-23T15:24:45.275Z,6.22
2023-02-23T15:25:51.308Z,5.00